MET5368 - Boston to Charlottesville

Embraer ERJ-170LR
955AG
0 hrs 45 mins
425 nm
Scheduled - Daily

Bid/PiRep Status

Bid was submitted on Jan 06 2017.

PiRep # 74630: Approved by Sean Doyle on January 7th, 2017 23:41 UTC

Departure

Departing from
Boston (BOS)
Departure gate
Scheduled Departure
GMT 1700
Local 1300

Arrival

Arriving at
Charlottesville (CHO)
Arrival gate
Ramp
Scheduled Arrival
GMT 1745
Local 1345
METAR KCHO 270753Z AUTO 25005KT 10SM CLR 15/13 A2994 RMK AO2 SLP133 T01500133
TAF KCHO 270533Z 2706/2806 00000KT P6SM SKC FM271100 00000KT P6SM BKN100 FM271200 00000KT P6SM VCTS BKN060CB FM271700 25005KT P6SM BKN050 FM271800 28006KT P6SM -SHRA VCTS BKN050CB FM272000 33006KT P6SM -SHRA VCTS BKN050CB FM280000 02004KT P6SM -SHRA BKN050

Route Map

Planning Resources

TERPZ3 LDN GVE
KBWI BAL OTT BOOYA GVE KCHO
TERPZ CSN GVE
PUT RBV OTT BRV GVE KCHO
Route:
OFP Layout:
Units:
Detailed Navlog:
ETOPS Planning:
Plan Stepclimbs:
Runway Analysis:
Include NOTAMS:
FIR NOTAMS:
Flight Maps:

Return Flights

MET5369
Embraer ERJ-170LR
1916 GMT

Popularity

Hub Current Bids PiReps this month Total PiReps
KMCI 0 0 3
KLAX 0 0 1
KBOS 0 0 1